sensor_id;sensor_type;location;lat;lon;timestamp;temperature;humidity
5792;DHT22;2922;53.482;10.006;2024-01-25T15:52:11;7.60;99.90
5792;DHT22;2922;53.482;10.006;2024-01-25T15:54:37;7.50;99.90
5792;DHT22;2922;53.482;10.006;2024-01-25T15:57:03;7.50;99.90
5792;DHT22;2922;53.482;10.006;2024-01-25T15:59:33;7.50;99.90
5792;DHT22;2922;53.482;10.006;2024-01-25T16:02:01;7.50;99.90
5792;DHT22;2922;53.482;10.006;2024-01-25T16:04:26;7.50;99.90
5792;DHT22;2922;53.482;10.006;2024-01-25T16:06:53;7.50;99.90
5792;DHT22;2922;53.482;10.006;2024-01-25T16:09:18;7.40;99.90
5792;DHT22;2922;53.482;10.006;2024-01-25T16:11:44;7.40;99.90
5792;DHT22;2922;53.482;10.006;2024-01-25T16:14:10;7.40;99.90
5792;DHT22;2922;53.482;10.006;2024-01-25T16:16:35;7.40;99.90
5792;DHT22;2922;53.482;10.006;2024-01-25T16:19:01;7.40;99.90
5792;DHT22;2922;53.482;10.006;2024-01-25T16:21:26;7.40;99.90
5792;DHT22;2922;53.482;10.006;2024-01-25T16:23:52;7.40;99.90
5792;DHT22;2922;53.482;10.006;2024-01-25T16:26:18;7.40;99.90
5792;DHT22;2922;53.482;10.006;2024-01-25T16:28:43;7.40;99.90
5792;DHT22;2922;53.482;10.006;2024-01-25T16:31:09;7.40;99.90
5792;DHT22;2922;53.482;10.006;2024-01-25T16:33:36;7.40;99.90
5792;DHT22;2922;53.482;10.006;2024-01-25T16:36:02;7.40;99.90
5792;DHT22;2922;53.482;10.006;2024-01-25T16:38:28;7.40;99.90
5792;DHT22;2922;53.482;10.006;2024-01-25T16:40:53;7.40;99.90
5792;DHT22;2922;53.482;10.006;2024-01-25T16:43:19;7.30;99.90
5792;DHT22;2922;53.482;10.006;2024-01-25T16:45:44;7.30;99.90
5792;DHT22;2922;53.482;10.006;2024-01-25T16:48:10;7.30;99.90
5792;DHT22;2922;53.482;10.006;2024-01-25T16:50:35;7.30;99.90
5792;DHT22;2922;53.482;10.006;2024-01-25T16:53:01;7.30;99.90
5792;DHT22;2922;53.482;10.006;2024-01-25T16:55:27;7.20;99.90
5792;DHT22;2922;53.482;10.006;2024-01-25T16:57:53;7.20;99.90
5792;DHT22;2922;53.482;10.006;2024-01-25T17:00:19;7.10;99.90
5792;DHT22;2922;53.482;10.006;2024-01-25T17:02:46;7.10;99.90
5792;DHT22;2922;53.482;10.006;2024-01-25T17:05:14;7.10;99.90
5792;DHT22;2922;53.482;10.006;2024-01-25T17:07:39;7.10;99.90
5792;DHT22;2922;53.482;10.006;2024-01-25T17:10:05;7.00;99.90
5792;DHT22;2922;53.482;10.006;2024-01-25T17:12:32;7.00;99.90
5792;DHT22;2922;53.482;10.006;2024-01-25T17:14:58;7.00;99.90
5792;DHT22;2922;53.482;10.006;2024-01-25T17:17:24;7.00;99.90
5792;DHT22;2922;53.482;10.006;2024-01-25T17:19:51;6.90;99.90
5792;DHT22;2922;53.482;10.006;2024-01-25T17:22:17;6.90;99.90
5792;DHT22;2922;53.482;10.006;2024-01-25T17:24:43;6.90;99.90
5792;DHT22;2922;53.482;10.006;2024-01-25T17:27:09;6.90;99.90
5792;DHT22;2922;53.482;10.006;2024-01-25T17:29:34;6.80;99.90
5792;DHT22;2922;53.482;10.006;2024-01-25T17:32:00;6.80;99.90
5792;DHT22;2922;53.482;10.006;2024-01-25T17:34:25;6.80;99.90
5792;DHT22;2922;53.482;10.006;2024-01-25T17:36:51;6.70;99.90
5792;DHT22;2922;53.482;10.006;2024-01-25T17:39:16;6.70;99.90
5792;DHT22;2922;53.482;10.006;2024-01-25T17:41:42;6.70;99.90
5792;DHT22;2922;53.482;10.006;2024-01-25T17:44:07;6.70;99.90
5792;DHT22;2922;53.482;10.006;2024-01-25T17:46:34;6.70;99.90
5792;DHT22;2922;53.482;10.006;2024-01-25T17:48:59;6.60;99.90
5792;DHT22;2922;53.482;10.006;2024-01-25T17:51:25;6.60;99.90
5792;DHT22;2922;53.482;10.006;2024-01-25T17:53:50;6.50;99.90
5792;DHT22;2922;53.482;10.006;2024-01-25T17:56:16;6.50;99.90
5792;DHT22;2922;53.482;10.006;2024-01-25T17:58:41;6.50;99.90
5792;DHT22;2922;53.482;10.006;2024-01-25T18:01:07;6.50;99.90
5792;DHT22;2922;53.482;10.006;2024-01-25T19:03:39;5.70;99.90
5792;DHT22;2922;53.482;10.006;2024-01-25T19:06:05;5.60;99.90
5792;DHT22;2922;53.482;10.006;2024-01-25T19:08:32;5.50;99.90
5792;DHT22;2922;53.482;10.006;2024-01-25T19:10:58;5.50;99.90
5792;DHT22;2922;53.482;10.006;2024-01-25T19:13:24;5.50;99.90
5792;DHT22;2922;53.482;10.006;2024-01-25T19:15:49;5.40;99.90
5792;DHT22;2922;53.482;10.006;2024-01-25T19:18:15;5.40;99.90
5792;DHT22;2922;53.482;10.006;2024-01-25T19:20:41;5.30;99.90
5792;DHT22;2922;53.482;10.006;2024-01-25T19:23:10;5.30;99.90
5792;DHT22;2922;53.482;10.006;2024-01-25T19:25:35;5.30;99.90
5792;DHT22;2922;53.482;10.006;2024-01-25T19:28:01;5.20;99.90
5792;DHT22;2922;53.482;10.006;2024-01-25T19:30:27;5.10;99.90
5792;DHT22;2922;53.482;10.006;2024-01-25T19:32:52;5.10;99.90
5792;DHT22;2922;53.482;10.006;2024-01-25T19:35:18;5.00;99.90
5792;DHT22;2922;53.482;10.006;2024-01-25T19:37:44;5.00;99.90
5792;DHT22;2922;53.482;10.006;2024-01-25T19:40:10;5.00;99.90
5792;DHT22;2922;53.482;10.006;2024-01-25T19:42:36;4.90;99.90
5792;DHT22;2922;53.482;10.006;2024-01-25T19:45:02;4.90;99.90
5792;DHT22;2922;53.482;10.006;2024-01-25T19:47:28;4.90;99.90
5792;DHT22;2922;53.482;10.006;2024-01-25T19:49:53;4.80;99.90
5792;DHT22;2922;53.482;10.006;2024-01-25T19:52:21;4.80;99.90
5792;DHT22;2922;53.482;10.006;2024-01-25T19:54:46;4.80;99.90
5792;DHT22;2922;53.482;10.006;2024-01-25T19:57:13;4.80;99.90
5792;DHT22;2922;53.482;10.006;2024-01-25T19:59:39;4.80;99.90
5792;DHT22;2922;53.482;10.006;2024-01-25T20:02:07;4.80;99.90
5792;DHT22;2922;53.482;10.006;2024-01-25T20:04:33;4.80;99.90
5792;DHT22;2922;53.482;10.006;2024-01-25T20:06:59;4.80;99.90
5792;DHT22;2922;53.482;10.006;2024-01-25T20:09:25;4.80;99.90
5792;DHT22;2922;53.482;10.006;2024-01-25T20:11:52;4.80;99.90
5792;DHT22;2922;53.482;10.006;2024-01-25T20:14:17;4.80;99.90
5792;DHT22;2922;53.482;10.006;2024-01-25T20:16:43;4.80;99.90
5792;DHT22;2922;53.482;10.006;2024-01-25T20:19:08;4.80;99.90
5792;DHT22;2922;53.482;10.006;2024-01-25T20:21:34;4.80;99.90
5792;DHT22;2922;53.482;10.006;2024-01-25T20:23:59;4.80;99.90
5792;DHT22;2922;53.482;10.006;2024-01-25T20:26:26;4.80;99.90
5792;DHT22;2922;53.482;10.006;2024-01-25T20:28:52;4.90;99.90
5792;DHT22;2922;53.482;10.006;2024-01-25T20:31:19;4.80;99.90
5792;DHT22;2922;53.482;10.006;2024-01-25T20:33:45;4.80;99.90
5792;DHT22;2922;53.482;10.006;2024-01-25T20:36:11;4.80;99.90
5792;DHT22;2922;53.482;10.006;2024-01-25T20:38:37;4.80;99.90
5792;DHT22;2922;53.482;10.006;2024-01-25T20:41:03;4.80;99.90
5792;DHT22;2922;53.482;10.006;2024-01-25T20:43:29;4.70;99.90
5792;DHT22;2922;53.482;10.006;2024-01-25T20:45:55;4.70;99.90
5792;DHT22;2922;53.482;10.006;2024-01-25T20:48:21;4.80;99.90
5792;DHT22;2922;53.482;10.006;2024-01-25T20:50:47;4.70;99.90
5792;DHT22;2922;53.482;10.006;2024-01-25T20:53:13;4.70;99.90
5792;DHT22;2922;53.482;10.006;2024-01-25T20:55:38;4.70;99.90
5792;DHT22;2922;53.482;10.006;2024-01-25T20:58:04;4.70;99.90
5792;DHT22;2922;53.482;10.006;2024-01-25T21:00:30;4.70;99.90
5792;DHT22;2922;53.482;10.006;2024-01-25T21:02:57;4.70;99.90
5792;DHT22;2922;53.482;10.006;2024-01-25T21:05:23;4.70;99.90
5792;DHT22;2922;53.482;10.006;2024-01-25T21:07:49;4.70;99.90
5792;DHT22;2922;53.482;10.006;2024-01-25T21:10:16;4.70;99.90
5792;DHT22;2922;53.482;10.006;2024-01-25T21:12:43;4.70;99.90
5792;DHT22;2922;53.482;10.006;2024-01-25T21:15:10;4.70;99.90
5792;DHT22;2922;53.482;10.006;2024-01-25T21:17:37;4.80;99.90
5792;DHT22;2922;53.482;10.006;2024-01-25T21:20:03;4.80;99.90
5792;DHT22;2922;53.482;10.006;2024-01-25T21:22:30;4.80;99.90
5792;DHT22;2922;53.482;10.006;2024-01-25T21:24:56;4.80;99.90
5792;DHT22;2922;53.482;10.006;2024-01-25T21:27:21;4.80;99.90
5792;DHT22;2922;53.482;10.006;2024-01-25T21:29:47;4.80;99.90
5792;DHT22;2922;53.482;10.006;2024-01-25T21:32:13;4.80;99.90
5792;DHT22;2922;53.482;10.006;2024-01-25T21:34:38;4.90;99.90
5792;DHT22;2922;53.482;10.006;2024-01-25T21:37:04;4.90;99.90
5792;DHT22;2922;53.482;10.006;2024-01-25T21:39:30;4.90;99.90
5792;DHT22;2922;53.482;10.006;2024-01-25T21:41:55;4.90;99.90
5792;DHT22;2922;53.482;10.006;2024-01-25T21:44:21;4.90;99.90
5792;DHT22;2922;53.482;10.006;2024-01-25T21:46:46;4.90;99.90
5792;DHT22;2922;53.482;10.006;2024-01-25T21:49:12;4.90;99.90
5792;DHT22;2922;53.482;10.006;2024-01-25T21:51:42;4.90;99.90
5792;DHT22;2922;53.482;10.006;2024-01-25T21:54:09;4.90;99.90
5792;DHT22;2922;53.482;10.006;2024-01-25T21:56:34;4.90;99.90
5792;DHT22;2922;53.482;10.006;2024-01-25T21:59:00;5.00;99.90
5792;DHT22;2922;53.482;10.006;2024-01-25T22:01:25;5.00;99.90
5792;DHT22;2922;53.482;10.006;2024-01-25T22:03:51;5.00;99.90
5792;DHT22;2922;53.482;10.006;2024-01-25T22:06:19;5.00;99.90
5792;DHT22;2922;53.482;10.006;2024-01-25T22:08:45;5.00;99.90
5792;DHT22;2922;53.482;10.006;2024-01-25T22:11:10;5.00;99.90
5792;DHT22;2922;53.482;10.006;2024-01-25T22:13:37;5.00;99.90
5792;DHT22;2922;53.482;10.006;2024-01-25T22:16:03;5.00;99.90
5792;DHT22;2922;53.482;10.006;2024-01-25T22:18:29;5.10;99.90
5792;DHT22;2922;53.482;10.006;2024-01-25T22:20:54;5.10;99.90
5792;DHT22;2922;53.482;10.006;2024-01-25T22:23:20;5.10;99.90
5792;DHT22;2922;53.482;10.006;2024-01-25T22:25:46;5.10;99.90
5792;DHT22;2922;53.482;10.006;2024-01-25T22:28:11;5.10;99.90
5792;DHT22;2922;53.482;10.006;2024-01-25T22:30:37;5.10;99.90
5792;DHT22;2922;53.482;10.006;2024-01-25T22:33:04;5.10;99.90
5792;DHT22;2922;53.482;10.006;2024-01-25T22:35:30;5.10;99.90
5792;DHT22;2922;53.482;10.006;2024-01-25T22:37:56;5.10;99.90
5792;DHT22;2922;53.482;10.006;2024-01-25T22:40:21;5.10;99.90
5792;DHT22;2922;53.482;10.006;2024-01-25T22:42:47;5.10;99.90
5792;DHT22;2922;53.482;10.006;2024-01-25T22:45:12;5.10;99.90
5792;DHT22;2922;53.482;10.006;2024-01-25T22:47:38;5.10;99.90
5792;DHT22;2922;53.482;10.006;2024-01-25T22:50:04;5.10;99.90
5792;DHT22;2922;53.482;10.006;2024-01-25T22:52:30;5.10;99.90
5792;DHT22;2922;53.482;10.006;2024-01-25T22:54:55;5.10;99.90
5792;DHT22;2922;53.482;10.006;2024-01-25T22:57:21;5.10;99.90
5792;DHT22;2922;53.482;10.006;2024-01-25T22:59:46;5.10;99.90
5792;DHT22;2922;53.482;10.006;2024-01-25T23:02:14;5.10;99.90
5792;DHT22;2922;53.482;10.006;2024-01-25T23:04:40;5.10;99.90
5792;DHT22;2922;53.482;10.006;2024-01-25T23:07:05;5.10;99.90
5792;DHT22;2922;53.482;10.006;2024-01-25T23:09:31;5.10;99.90
5792;DHT22;2922;53.482;10.006;2024-01-25T23:11:56;5.10;99.90
5792;DHT22;2922;53.482;10.006;2024-01-25T23:14:22;5.10;99.90
5792;DHT22;2922;53.482;10.006;2024-01-25T23:16:47;5.20;99.90
5792;DHT22;2922;53.482;10.006;2024-01-25T23:19:13;5.20;99.90
5792;DHT22;2922;53.482;10.006;2024-01-25T23:21:38;5.20;99.90
5792;DHT22;2922;53.482;10.006;2024-01-25T23:24:04;5.20;99.90
5792;DHT22;2922;53.482;10.006;2024-01-25T23:26:31;5.20;99.90
5792;DHT22;2922;53.482;10.006;2024-01-25T23:28:56;5.30;99.90
5792;DHT22;2922;53.482;10.006;2024-01-25T23:31:22;5.30;99.90
5792;DHT22;2922;53.482;10.006;2024-01-25T23:33:48;5.20;99.90
5792;DHT22;2922;53.482;10.006;2024-01-25T23:36:13;5.20;99.90
5792;DHT22;2922;53.482;10.006;2024-01-25T23:38:39;5.30;99.90
5792;DHT22;2922;53.482;10.006;2024-01-25T23:41:06;5.30;99.90
5792;DHT22;2922;53.482;10.006;2024-01-25T23:43:32;5.30;99.90
5792;DHT22;2922;53.482;10.006;2024-01-25T23:45:58;5.30;99.90
5792;DHT22;2922;53.482;10.006;2024-01-25T23:48:23;5.30;99.90
5792;DHT22;2922;53.482;10.006;2024-01-25T23:50:49;5.30;99.90
5792;DHT22;2922;53.482;10.006;2024-01-25T23:53:14;5.30;99.90
5792;DHT22;2922;53.482;10.006;2024-01-25T23:55:40;5.30;99.90
5792;DHT22;2922;53.482;10.006;2024-01-25T23:58:05;5.40;99.90
